sensor_id;sensor_type;location;lat;lon;timestamp;P1;durP1;ratioP1;P2;durP2;ratioP2
47433;SDS011;33184;48.774;8.918;2023-03-01T00:04:20;19.77;;;11.20;;
47433;SDS011;33184;48.774;8.918;2023-03-01T00:09:41;19.30;;;12.03;;
47433;SDS011;33184;48.774;8.918;2023-03-01T00:15:02;25.30;;;11.80;;
47433;SDS011;33184;48.774;8.918;2023-03-01T00:20:25;17.60;;;11.43;;
47433;SDS011;33184;48.774;8.918;2023-03-01T00:25:46;18.70;;;12.17;;
47433;SDS011;33184;48.774;8.918;2023-03-01T00:31:11;18.80;;;10.17;;
47433;SDS011;33184;48.774;8.918;2023-03-01T00:36:36;22.60;;;13.07;;
47433;SDS011;33184;48.774;8.918;2023-03-01T00:41:57;20.17;;;11.73;;
47433;SDS011;33184;48.774;8.918;2023-03-01T00:47:17;20.60;;;11.40;;
47433;SDS011;33184;48.774;8.918;2023-03-01T00:52:38;21.13;;;11.43;;
47433;SDS011;33184;48.774;8.918;2023-03-01T00:57:58;18.30;;;11.83;;
47433;SDS011;33184;48.774;8.918;2023-03-01T01:03:19;15.27;;;11.37;;
47433;SDS011;33184;48.774;8.918;2023-03-01T01:08:40;22.23;;;11.83;;
47433;SDS011;33184;48.774;8.918;2023-03-01T01:14:00;25.10;;;12.40;;
47433;SDS011;33184;48.774;8.918;2023-03-01T01:19:23;17.93;;;11.37;;
47433;SDS011;33184;48.774;8.918;2023-03-01T01:24:45;22.70;;;12.87;;
47433;SDS011;33184;48.774;8.918;2023-03-01T01:30:06;19.53;;;11.90;;
47433;SDS011;33184;48.774;8.918;2023-03-01T01:35:27;19.80;;;11.57;;
47433;SDS011;33184;48.774;8.918;2023-03-01T01:40:49;23.00;;;12.27;;
47433;SDS011;33184;48.774;8.918;2023-03-01T01:51:41;21.63;;;12.07;;
47433;SDS011;33184;48.774;8.918;2023-03-01T01:57:05;21.27;;;11.87;;
47433;SDS011;33184;48.774;8.918;2023-03-01T02:02:30;16.63;;;11.40;;
47433;SDS011;33184;48.774;8.918;2023-03-01T02:07:51;23.20;;;13.23;;
47433;SDS011;33184;48.774;8.918;2023-03-01T02:13:13;23.83;;;12.07;;
47433;SDS011;33184;48.774;8.918;2023-03-01T02:18:34;23.97;;;13.57;;
47433;SDS011;33184;48.774;8.918;2023-03-01T02:23:55;20.50;;;13.57;;
47433;SDS011;33184;48.774;8.918;2023-03-01T02:29:17;21.93;;;11.90;;
47433;SDS011;33184;48.774;8.918;2023-03-01T02:34:38;29.53;;;14.63;;
47433;SDS011;33184;48.774;8.918;2023-03-01T02:39:59;24.23;;;13.97;;
47433;SDS011;33184;48.774;8.918;2023-03-01T02:45:26;33.83;;;17.00;;
47433;SDS011;33184;48.774;8.918;2023-03-01T02:56:23;25.57;;;14.63;;
47433;SDS011;33184;48.774;8.918;2023-03-01T03:01:44;28.03;;;13.93;;
47433;SDS011;33184;48.774;8.918;2023-03-01T03:07:05;23.77;;;13.30;;
47433;SDS011;33184;48.774;8.918;2023-03-01T03:12:27;24.43;;;12.40;;
47433;SDS011;33184;48.774;8.918;2023-03-01T03:17:48;21.83;;;13.50;;
47433;SDS011;33184;48.774;8.918;2023-03-01T03:23:09;20.07;;;11.40;;
47433;SDS011;33184;48.774;8.918;2023-03-01T03:28:30;19.33;;;13.33;;
47433;SDS011;33184;48.774;8.918;2023-03-01T03:33:54;23.10;;;13.23;;
47433;SDS011;33184;48.774;8.918;2023-03-01T03:39:16;22.40;;;12.93;;
47433;SDS011;33184;48.774;8.918;2023-03-01T03:44:37;18.07;;;11.77;;
47433;SDS011;33184;48.774;8.918;2023-03-01T03:49:57;22.87;;;13.37;;
47433;SDS011;33184;48.774;8.918;2023-03-01T03:55:18;24.37;;;12.63;;
47433;SDS011;33184;48.774;8.918;2023-03-01T04:00:40;19.93;;;13.70;;
47433;SDS011;33184;48.774;8.918;2023-03-01T04:06:02;22.87;;;13.27;;
47433;SDS011;33184;48.774;8.918;2023-03-01T04:11:24;28.43;;;14.40;;
47433;SDS011;33184;48.774;8.918;2023-03-01T04:16:47;21.87;;;13.77;;
47433;SDS011;33184;48.774;8.918;2023-03-01T04:22:08;24.60;;;13.77;;
47433;SDS011;33184;48.774;8.918;2023-03-01T04:27:34;25.27;;;13.00;;
47433;SDS011;33184;48.774;8.918;2023-03-01T04:32:55;24.38;;;14.07;;
47433;SDS011;33184;48.774;8.918;2023-03-01T04:38:19;22.33;;;13.50;;
47433;SDS011;33184;48.774;8.918;2023-03-01T04:49:03;24.37;;;11.73;;
47433;SDS011;33184;48.774;8.918;2023-03-01T04:54:23;22.67;;;14.13;;
47433;SDS011;33184;48.774;8.918;2023-03-01T04:59:44;26.03;;;14.87;;
47433;SDS011;33184;48.774;8.918;2023-03-01T05:05:05;26.67;;;14.20;;
47433;SDS011;33184;48.774;8.918;2023-03-01T05:10:26;29.80;;;15.17;;
47433;SDS011;33184;48.774;8.918;2023-03-01T05:15:59;25.00;;;16.10;;
47433;SDS011;33184;48.774;8.918;2023-03-01T05:21:20;27.97;;;15.07;;
47433;SDS011;33184;48.774;8.918;2023-03-01T05:26:41;29.57;;;13.77;;
47433;SDS011;33184;48.774;8.918;2023-03-01T05:32:02;28.77;;;15.67;;
47433;SDS011;33184;48.774;8.918;2023-03-01T05:37:23;26.87;;;14.60;;
47433;SDS011;33184;48.774;8.918;2023-03-01T05:42:49;25.73;;;15.63;;
47433;SDS011;33184;48.774;8.918;2023-03-01T05:48:14;25.23;;;13.77;;
47433;SDS011;33184;48.774;8.918;2023-03-01T05:53:34;31.43;;;16.83;;
47433;SDS011;33184;48.774;8.918;2023-03-01T05:58:55;30.10;;;16.37;;
47433;SDS011;33184;48.774;8.918;2023-03-01T06:04:16;31.67;;;16.23;;
47433;SDS011;33184;48.774;8.918;2023-03-01T06:09:36;25.63;;;17.63;;
47433;SDS011;33184;48.774;8.918;2023-03-01T06:14:57;27.53;;;14.97;;
47433;SDS011;33184;48.774;8.918;2023-03-01T06:20:19;22.40;;;14.40;;
47433;SDS011;33184;48.774;8.918;2023-03-01T06:25:41;29.10;;;16.83;;
47433;SDS011;33184;48.774;8.918;2023-03-01T06:31:02;25.70;;;14.87;;
47433;SDS011;33184;48.774;8.918;2023-03-01T06:36:22;30.60;;;15.57;;
47433;SDS011;33184;48.774;8.918;2023-03-01T06:41:43;27.97;;;16.53;;
47433;SDS011;33184;48.774;8.918;2023-03-01T06:47:04;23.10;;;14.93;;
47433;SDS011;33184;48.774;8.918;2023-03-01T06:52:25;23.53;;;12.90;;
47433;SDS011;33184;48.774;8.918;2023-03-01T06:57:46;25.37;;;14.87;;
47433;SDS011;33184;48.774;8.918;2023-03-01T07:03:07;29.33;;;16.13;;
47433;SDS011;33184;48.774;8.918;2023-03-01T07:08:28;25.27;;;14.40;;
47433;SDS011;33184;48.774;8.918;2023-03-01T07:13:49;28.27;;;16.03;;
47433;SDS011;33184;48.774;8.918;2023-03-01T07:19:09;24.93;;;14.20;;
47433;SDS011;33184;48.774;8.918;2023-03-01T07:24:30;23.33;;;13.83;;
47433;SDS011;33184;48.774;8.918;2023-03-01T07:29:50;26.90;;;15.63;;
47433;SDS011;33184;48.774;8.918;2023-03-01T07:35:11;29.17;;;17.07;;
47433;SDS011;33184;48.774;8.918;2023-03-01T07:40:32;28.57;;;15.67;;
47433;SDS011;33184;48.774;8.918;2023-03-01T07:45:52;28.77;;;16.20;;
47433;SDS011;33184;48.774;8.918;2023-03-01T07:51:13;30.43;;;17.00;;
47433;SDS011;33184;48.774;8.918;2023-03-01T07:56:33;24.37;;;15.10;;
47433;SDS011;33184;48.774;8.918;2023-03-01T08:01:55;29.57;;;16.23;;
47433;SDS011;33184;48.774;8.918;2023-03-01T08:07:16;31.73;;;16.83;;
47433;SDS011;33184;48.774;8.918;2023-03-01T08:12:36;29.80;;;16.70;;
47433;SDS011;33184;48.774;8.918;2023-03-01T08:17:57;31.23;;;14.43;;
47433;SDS011;33184;48.774;8.918;2023-03-01T08:23:17;26.70;;;14.33;;
47433;SDS011;33184;48.774;8.918;2023-03-01T08:28:38;33.67;;;17.43;;
47433;SDS011;33184;48.774;8.918;2023-03-01T08:34:00;31.73;;;17.97;;
47433;SDS011;33184;48.774;8.918;2023-03-01T08:39:21;31.47;;;15.53;;
47433;SDS011;33184;48.774;8.918;2023-03-01T08:44:42;31.20;;;17.00;;
47433;SDS011;33184;48.774;8.918;2023-03-01T08:50:02;28.73;;;16.80;;
47433;SDS011;33184;48.774;8.918;2023-03-01T08:55:24;31.90;;;18.43;;
47433;SDS011;33184;48.774;8.918;2023-03-01T09:00:44;32.30;;;18.10;;
47433;SDS011;33184;48.774;8.918;2023-03-01T09:06:06;30.03;;;17.67;;
47433;SDS011;33184;48.774;8.918;2023-03-01T09:11:28;29.53;;;16.40;;
47433;SDS011;33184;48.774;8.918;2023-03-01T09:16:49;26.77;;;14.93;;
47433;SDS011;33184;48.774;8.918;2023-03-01T09:22:10;28.93;;;17.93;;
47433;SDS011;33184;48.774;8.918;2023-03-01T09:27:30;25.10;;;16.20;;
47433;SDS011;33184;48.774;8.918;2023-03-01T09:32:51;28.23;;;17.07;;
47433;SDS011;33184;48.774;8.918;2023-03-01T09:38:12;24.60;;;15.07;;
47433;SDS011;33184;48.774;8.918;2023-03-01T09:49:18;23.90;;;14.57;;
47433;SDS011;33184;48.774;8.918;2023-03-01T09:54:44;28.03;;;16.03;;
47433;SDS011;33184;48.774;8.918;2023-03-01T10:11:37;29.57;;;16.47;;
47433;SDS011;33184;48.774;8.918;2023-03-01T10:22:28;30.43;;;18.23;;
47433;SDS011;33184;48.774;8.918;2023-03-01T10:27:52;29.10;;;17.23;;
47433;SDS011;33184;48.774;8.918;2023-03-01T10:33:22;29.53;;;18.87;;
47433;SDS011;33184;48.774;8.918;2023-03-01T10:38:52;26.97;;;17.53;;
47433;SDS011;33184;48.774;8.918;2023-03-01T10:44:34;26.40;;;16.83;;
47433;SDS011;33184;48.774;8.918;2023-03-01T10:49:56;27.53;;;16.43;;
47433;SDS011;33184;48.774;8.918;2023-03-01T10:55:35;30.40;;;17.70;;
47433;SDS011;33184;48.774;8.918;2023-03-01T11:01:04;31.93;;;18.47;;
47433;SDS011;33184;48.774;8.918;2023-03-01T11:06:45;30.75;;;16.55;;
47433;SDS011;33184;48.774;8.918;2023-03-01T11:12:19;23.97;;;11.23;;
47433;SDS011;33184;48.774;8.918;2023-03-01T11:17:40;26.73;;;16.63;;
47433;SDS011;33184;48.774;8.918;2023-03-01T11:28:32;26.50;;;16.13;;
47433;SDS011;33184;48.774;8.918;2023-03-01T11:33:57;26.37;;;17.87;;
47433;SDS011;33184;48.774;8.918;2023-03-01T11:45:06;25.30;;;14.33;;
47433;SDS011;33184;48.774;8.918;2023-03-01T11:50:48;29.20;;;17.40;;
47433;SDS011;33184;48.774;8.918;2023-03-01T11:56:32;27.73;;;17.17;;
47433;SDS011;33184;48.774;8.918;2023-03-01T12:07:53;24.60;;;17.05;;
47433;SDS011;33184;48.774;8.918;2023-03-01T12:48:07;21.17;;;15.73;;
47433;SDS011;33184;48.774;8.918;2023-03-01T12:53:53;20.63;;;11.47;;
47433;SDS011;33184;48.774;8.918;2023-03-01T13:10:47;23.23;;;15.13;;
47433;SDS011;33184;48.774;8.918;2023-03-01T13:27:48;23.10;;;13.43;;
47433;SDS011;33184;48.774;8.918;2023-03-01T13:38:59;21.63;;;14.67;;
47433;SDS011;33184;48.774;8.918;2023-03-01T14:11:41;21.60;;;16.50;;
47433;SDS011;33184;48.774;8.918;2023-03-01T14:23:10;26.10;;;13.40;;
47433;SDS011;33184;48.774;8.918;2023-03-01T14:33:57;22.20;;;14.57;;
47433;SDS011;33184;48.774;8.918;2023-03-01T14:39:19;22.57;;;14.47;;
47433;SDS011;33184;48.774;8.918;2023-03-01T14:44:45;24.30;;;15.80;;
47433;SDS011;33184;48.774;8.918;2023-03-01T14:50:09;25.20;;;15.50;;
47433;SDS011;33184;48.774;8.918;2023-03-01T14:55:40;25.27;;;16.50;;
47433;SDS011;33184;48.774;8.918;2023-03-01T15:01:04;22.97;;;17.20;;
47433;SDS011;33184;48.774;8.918;2023-03-01T15:06:25;25.50;;;17.50;;
47433;SDS011;33184;48.774;8.918;2023-03-01T15:11:45;23.30;;;16.03;;
47433;SDS011;33184;48.774;8.918;2023-03-01T15:22:57;22.10;;;13.93;;
47433;SDS011;33184;48.774;8.918;2023-03-01T15:28:19;24.03;;;14.50;;
47433;SDS011;33184;48.774;8.918;2023-03-01T15:33:40;19.03;;;11.97;;
47433;SDS011;33184;48.774;8.918;2023-03-01T15:39:23;24.10;;;16.03;;
47433;SDS011;33184;48.774;8.918;2023-03-01T15:45:10;23.47;;;16.23;;
47433;SDS011;33184;48.774;8.918;2023-03-01T15:50:35;25.73;;;17.07;;
47433;SDS011;33184;48.774;8.918;2023-03-01T15:56:00;24.50;;;14.23;;
47433;SDS011;33184;48.774;8.918;2023-03-01T16:01:20;26.30;;;17.10;;
47433;SDS011;33184;48.774;8.918;2023-03-01T16:06:41;25.77;;;16.20;;
47433;SDS011;33184;48.774;8.918;2023-03-01T16:12:02;20.87;;;14.20;;
47433;SDS011;33184;48.774;8.918;2023-03-01T16:17:23;26.60;;;15.23;;
47433;SDS011;33184;48.774;8.918;2023-03-01T16:22:45;25.97;;;16.80;;
47433;SDS011;33184;48.774;8.918;2023-03-01T16:28:06;23.97;;;13.00;;
47433;SDS011;33184;48.774;8.918;2023-03-01T16:33:30;17.95;;;11.35;;
47433;SDS011;33184;48.774;8.918;2023-03-01T16:38:51;26.43;;;14.10;;
47433;SDS011;33184;48.774;8.918;2023-03-01T16:44:12;24.97;;;15.97;;
47433;SDS011;33184;48.774;8.918;2023-03-01T16:49:33;23.53;;;15.50;;
47433;SDS011;33184;48.774;8.918;2023-03-01T16:54:53;26.17;;;15.10;;
47433;SDS011;33184;48.774;8.918;2023-03-01T17:00:14;23.53;;;15.13;;
47433;SDS011;33184;48.774;8.918;2023-03-01T17:05:35;25.37;;;15.17;;
47433;SDS011;33184;48.774;8.918;2023-03-01T17:11:04;26.43;;;15.20;;
47433;SDS011;33184;48.774;8.918;2023-03-01T17:16:31;21.37;;;14.10;;
47433;SDS011;33184;48.774;8.918;2023-03-01T17:21:52;26.33;;;15.40;;
47433;SDS011;33184;48.774;8.918;2023-03-01T17:27:13;24.17;;;15.10;;
47433;SDS011;33184;48.774;8.918;2023-03-01T17:32:35;26.50;;;16.20;;
47433;SDS011;33184;48.774;8.918;2023-03-01T17:37:55;21.90;;;13.30;;
47433;SDS011;33184;48.774;8.918;2023-03-01T17:43:16;21.13;;;13.93;;
47433;SDS011;33184;48.774;8.918;2023-03-01T17:48:37;23.53;;;15.03;;
47433;SDS011;33184;48.774;8.918;2023-03-01T17:53:58;21.20;;;14.70;;
47433;SDS011;33184;48.774;8.918;2023-03-01T17:59:18;29.73;;;16.63;;
47433;SDS011;33184;48.774;8.918;2023-03-01T18:04:39;27.63;;;16.90;;
47433;SDS011;33184;48.774;8.918;2023-03-01T18:10:00;30.70;;;17.70;;
47433;SDS011;33184;48.774;8.918;2023-03-01T18:15:20;36.87;;;20.03;;
47433;SDS011;33184;48.774;8.918;2023-03-01T18:20:41;31.50;;;19.27;;
47433;SDS011;33184;48.774;8.918;2023-03-01T18:26:03;23.43;;;14.77;;
47433;SDS011;33184;48.774;8.918;2023-03-01T18:31:26;26.90;;;17.15;;
47433;SDS011;33184;48.774;8.918;2023-03-01T18:36:46;35.50;;;20.27;;
47433;SDS011;33184;48.774;8.918;2023-03-01T18:42:07;25.67;;;15.73;;
47433;SDS011;33184;48.774;8.918;2023-03-01T18:47:28;22.90;;;16.40;;
47433;SDS011;33184;48.774;8.918;2023-03-01T18:52:48;24.87;;;16.20;;
47433;SDS011;33184;48.774;8.918;2023-03-01T18:58:09;26.47;;;16.40;;
47433;SDS011;33184;48.774;8.918;2023-03-01T19:03:30;27.17;;;17.07;;
47433;SDS011;33184;48.774;8.918;2023-03-01T19:08:51;24.47;;;15.47;;
47433;SDS011;33184;48.774;8.918;2023-03-01T19:14:12;22.33;;;15.27;;
47433;SDS011;33184;48.774;8.918;2023-03-01T19:19:33;23.67;;;15.03;;
47433;SDS011;33184;48.774;8.918;2023-03-01T19:24:55;27.47;;;16.77;;
47433;SDS011;33184;48.774;8.918;2023-03-01T19:30:17;29.37;;;15.73;;
47433;SDS011;33184;48.774;8.918;2023-03-01T19:35:37;26.50;;;16.13;;
47433;SDS011;33184;48.774;8.918;2023-03-01T19:41:02;26.23;;;15.67;;
47433;SDS011;33184;48.774;8.918;2023-03-01T19:46:23;28.73;;;16.77;;
47433;SDS011;33184;48.774;8.918;2023-03-01T19:51:44;29.07;;;17.10;;
47433;SDS011;33184;48.774;8.918;2023-03-01T19:57:05;26.00;;;16.73;;
47433;SDS011;33184;48.774;8.918;2023-03-01T20:02:26;29.90;;;17.83;;
47433;SDS011;33184;48.774;8.918;2023-03-01T20:07:46;25.37;;;16.37;;
47433;SDS011;33184;48.774;8.918;2023-03-01T20:13:07;30.10;;;18.73;;
47433;SDS011;33184;48.774;8.918;2023-03-01T20:18:28;26.60;;;17.10;;
47433;SDS011;33184;48.774;8.918;2023-03-01T20:23:49;31.27;;;19.53;;
47433;SDS011;33184;48.774;8.918;2023-03-01T20:29:10;36.43;;;19.50;;
47433;SDS011;33184;48.774;8.918;2023-03-01T20:34:31;35.77;;;19.80;;
47433;SDS011;33184;48.774;8.918;2023-03-01T20:39:55;35.17;;;19.40;;
47433;SDS011;33184;48.774;8.918;2023-03-01T20:45:16;31.33;;;19.30;;
47433;SDS011;33184;48.774;8.918;2023-03-01T20:50:39;30.40;;;18.53;;
47433;SDS011;33184;48.774;8.918;2023-03-01T20:56:01;29.87;;;17.83;;
47433;SDS011;33184;48.774;8.918;2023-03-01T21:01:26;32.57;;;18.90;;
47433;SDS011;33184;48.774;8.918;2023-03-01T21:06:47;36.83;;;20.40;;
47433;SDS011;33184;48.774;8.918;2023-03-01T21:12:07;32.03;;;18.07;;
47433;SDS011;33184;48.774;8.918;2023-03-01T21:17:29;28.80;;;17.13;;
47433;SDS011;33184;48.774;8.918;2023-03-01T21:22:50;35.47;;;21.17;;
47433;SDS011;33184;48.774;8.918;2023-03-01T21:28:10;36.33;;;20.30;;
47433;SDS011;33184;48.774;8.918;2023-03-01T21:33:31;37.47;;;20.43;;
47433;SDS011;33184;48.774;8.918;2023-03-01T21:38:52;38.23;;;20.60;;
47433;SDS011;33184;48.774;8.918;2023-03-01T21:44:14;38.03;;;21.27;;
47433;SDS011;33184;48.774;8.918;2023-03-01T21:49:36;35.83;;;20.67;;
47433;SDS011;33184;48.774;8.918;2023-03-01T21:54:57;32.63;;;18.47;;
47433;SDS011;33184;48.774;8.918;2023-03-01T22:00:21;31.57;;;18.37;;
47433;SDS011;33184;48.774;8.918;2023-03-01T22:05:42;27.70;;;17.53;;
47433;SDS011;33184;48.774;8.918;2023-03-01T22:11:17;29.57;;;17.60;;
47433;SDS011;33184;48.774;8.918;2023-03-01T22:16:40;34.37;;;16.60;;
47433;SDS011;33184;48.774;8.918;2023-03-01T22:22:03;27.33;;;17.63;;
47433;SDS011;33184;48.774;8.918;2023-03-01T22:27:24;34.53;;;20.13;;
47433;SDS011;33184;48.774;8.918;2023-03-01T22:32:44;31.70;;;18.70;;
47433;SDS011;33184;48.774;8.918;2023-03-01T22:38:05;31.77;;;18.30;;
47433;SDS011;33184;48.774;8.918;2023-03-01T22:43:26;32.03;;;18.27;;
47433;SDS011;33184;48.774;8.918;2023-03-01T22:48:48;28.20;;;17.17;;
47433;SDS011;33184;48.774;8.918;2023-03-01T22:54:09;31.63;;;17.60;;
47433;SDS011;33184;48.774;8.918;2023-03-01T22:59:30;35.23;;;19.40;;
47433;SDS011;33184;48.774;8.918;2023-03-01T23:04:50;33.00;;;19.97;;
47433;SDS011;33184;48.774;8.918;2023-03-01T23:10:13;28.50;;;16.90;;
47433;SDS011;33184;48.774;8.918;2023-03-01T23:15:35;30.07;;;17.93;;
47433;SDS011;33184;48.774;8.918;2023-03-01T23:20:55;34.43;;;21.00;;
47433;SDS011;33184;48.774;8.918;2023-03-01T23:26:16;34.47;;;19.30;;
47433;SDS011;33184;48.774;8.918;2023-03-01T23:31:38;32.87;;;19.90;;
47433;SDS011;33184;48.774;8.918;2023-03-01T23:36:59;32.87;;;18.70;;
47433;SDS011;33184;48.774;8.918;2023-03-01T23:42:20;33.70;;;20.03;;
47433;SDS011;33184;48.774;8.918;2023-03-01T23:47:40;29.63;;;17.97;;
47433;SDS011;33184;48.774;8.918;2023-03-01T23:53:02;28.90;;;18.03;;
47433;SDS011;33184;48.774;8.918;2023-03-01T23:58:23;29.47;;;16.70;;
